EAG5511 SBBR-SBSP
Flight info
| Callsign | EAG5511 |
|---|---|
| Flight time | 1h 11m |
| Altitude | 43000 |
| Route | GEBEP/N0478F410 UZ2 ENTIT |
| Aircraft | C700/M-SBDGHM1RWXY/LB2 |
Departure
| Time | 2026-05-03 21:06 |
|---|---|
| Airport | Presidente Juscelino Kubitschek International Airport (SBBR) |
Arrival
| Time | 2026-05-03 22:17 |
|---|---|
| Airport | Congonhas–Deputado Freitas Nobre Airport (SBSP) |
| Time | Latitude | Longitude | Altitude | Speed | Heading |
|---|---|---|---|---|---|
| 2026-05-03 20:55 | -15.87561 | -47.91731 | 3467 ft | 0 kts | 356° |
| 2026-05-03 20:59 | -15.87578 | -47.91730 | 3462 ft | 3 kts | 356° |
| 2026-05-03 20:59 | -15.87590 | -47.91729 | 3464 ft | 3 kts | 356° |
| 2026-05-03 20:59 | -15.87606 | -47.91727 | 3464 ft | 2 kts | 356° |
| 2026-05-03 20:59 | -15.87622 | -47.91726 | 3464 ft | 2 kts | 356° |
| 2026-05-03 21:00 | -15.87638 | -47.91725 | 3464 ft | 2 kts | 356° |
| 2026-05-03 21:00 | -15.87648 | -47.91724 | 3464 ft | 2 kts | 356° |
| 2026-05-03 21:00 | -15.87661 | -47.91723 | 3464 ft | 0 kts | 356° |
| 2026-05-03 21:01 | -15.87652 | -47.91715 | 3464 ft | 4 kts | 61° |
| 2026-05-03 21:01 | -15.87631 | -47.91661 | 3465 ft | 11 kts | 36° |
| 2026-05-03 21:01 | -15.87548 | -47.91654 | 3464 ft | 13 kts | 356° |
| 2026-05-03 21:02 | -15.87450 | -47.91660 | 3464 ft | 15 kts | 357° |
| 2026-05-03 21:02 | -15.87339 | -47.91666 | 3464 ft | 17 kts | 356° |
| 2026-05-03 21:02 | -15.87216 | -47.91675 | 3464 ft | 19 kts | 357° |
| 2026-05-03 21:02 | -15.87080 | -47.91684 | 3464 ft | 20 kts | 356° |
| 2026-05-03 21:03 | -15.86935 | -47.91694 | 3464 ft | 22 kts | 356° |
| 2026-05-03 21:03 | -15.86779 | -47.91704 | 3465 ft | 23 kts | 356° |
| 2026-05-03 21:03 | -15.86624 | -47.91734 | 3465 ft | 19 kts | 316° |
| 2026-05-03 21:03 | -15.86617 | -47.91869 | 3465 ft | 20 kts | 266° |
| 2026-05-03 21:04 | -15.86626 | -47.92020 | 3465 ft | 22 kts | 266° |
| 2026-05-03 21:04 | -15.86628 | -47.92183 | 3465 ft | 23 kts | 289° |
| 2026-05-03 21:04 | -15.86556 | -47.92338 | 3465 ft | 25 kts | 283° |
| 2026-05-03 21:04 | -15.86538 | -47.92519 | 3464 ft | 26 kts | 269° |
| 2026-05-03 21:05 | -15.86550 | -47.92706 | 3464 ft | 24 kts | 265° |
| 2026-05-03 21:05 | -15.86470 | -47.92769 | 3463 ft | 17 kts | 357° |
| 2026-05-03 21:05 | -15.86361 | -47.92732 | 3461 ft | 2 kts | 82° |
| 2026-05-03 21:05 | -15.86359 | -47.92712 | 3461 ft | 14 kts | 84° |
| 2026-05-03 21:06 | -15.86329 | -47.92283 | 3466 ft | 107 kts | 86° |
| 2026-05-03 21:06 | -15.86260 | -47.91226 | 3654 ft | 177 kts | 87° |
| 2026-05-03 21:06 | -15.86218 | -47.89842 | 4707 ft | 201 kts | 95° |
| 2026-05-03 21:06 | -15.86870 | -47.88527 | 6021 ft | 219 kts | 138° |
| 2026-05-03 21:07 | -15.88346 | -47.87914 | 7289 ft | 245 kts | 165° |
| 2026-05-03 21:07 | -15.90123 | -47.87630 | 8326 ft | 272 kts | 169° |
| 2026-05-03 21:07 | -15.92036 | -47.87326 | 9722 ft | 279 kts | 167° |
| 2026-05-03 21:07 | -15.93990 | -47.86946 | 10916 ft | 297 kts | 167° |
| 2026-05-03 21:08 | -15.96098 | -47.86519 | 11936 ft | 316 kts | 167° |
| 2026-05-03 21:08 | -15.98241 | -47.86105 | 13363 ft | 321 kts | 168° |
| 2026-05-03 21:08 | -16.00465 | -47.85681 | 14594 ft | 329 kts | 168° |
| 2026-05-03 21:08 | -16.02749 | -47.85240 | 15690 ft | 338 kts | 168° |
| 2026-05-03 21:09 | -16.05082 | -47.84784 | 16843 ft | 344 kts | 168° |
| 2026-05-03 21:09 | -16.07472 | -47.84421 | 18003 ft | 351 kts | 176° |
| 2026-05-03 21:09 | -16.09945 | -47.84459 | 19006 ft | 360 kts | 181° |
| 2026-05-03 21:09 | -16.12474 | -47.84485 | 19958 ft | 367 kts | 180° |
| 2026-05-03 21:10 | -16.15045 | -47.84407 | 20907 ft | 374 kts | 173° |
| 2026-05-03 21:10 | -16.17603 | -47.83790 | 21810 ft | 382 kts | 163° |
| 2026-05-03 21:10 | -16.20127 | -47.82968 | 22749 ft | 388 kts | 163° |
| 2026-05-03 21:10 | -16.22731 | -47.82127 | 23689 ft | 395 kts | 163° |
| 2026-05-03 21:11 | -16.25375 | -47.81277 | 24488 ft | 400 kts | 163° |
| 2026-05-03 21:11 | -16.28051 | -47.80417 | 25285 ft | 405 kts | 163° |
| 2026-05-03 21:11 | -16.30758 | -47.79547 | 26070 ft | 410 kts | 164° |
| 2026-05-03 21:11 | -16.33506 | -47.78661 | 26850 ft | 415 kts | 163° |
| 2026-05-03 21:12 | -16.36280 | -47.77767 | 27629 ft | 420 kts | 164° |
| 2026-05-03 21:12 | -16.39091 | -47.76863 | 28383 ft | 425 kts | 164° |
| 2026-05-03 21:12 | -16.41934 | -47.75947 | 29134 ft | 430 kts | 163° |
| 2026-05-03 21:12 | -16.44772 | -47.75032 | 29839 ft | 435 kts | 164° |
| 2026-05-03 21:13 | -16.47681 | -47.74094 | 30507 ft | 440 kts | 163° |
| 2026-05-03 21:13 | -16.50626 | -47.73143 | 31127 ft | 445 kts | 164° |
| 2026-05-03 21:13 | -16.53599 | -47.72185 | 31704 ft | 450 kts | 164° |
| 2026-05-03 21:13 | -16.56605 | -47.71216 | 32296 ft | 454 kts | 164° |
| 2026-05-03 21:14 | -16.59639 | -47.70235 | 32847 ft | 459 kts | 165° |
| 2026-05-03 21:14 | -16.62701 | -47.69246 | 33410 ft | 462 kts | 165° |
| 2026-05-03 21:14 | -16.65765 | -47.68256 | 34163 ft | 460 kts | 165° |
| 2026-05-03 21:14 | -16.68819 | -47.67269 | 34806 ft | 459 kts | 165° |
| 2026-05-03 21:15 | -16.71817 | -47.66299 | 35472 ft | 457 kts | 165° |
| 2026-05-03 21:15 | -16.74848 | -47.65320 | 36165 ft | 455 kts | 165° |
| 2026-05-03 21:15 | -16.77867 | -47.64344 | 36836 ft | 453 kts | 165° |
| 2026-05-03 21:15 | -16.80875 | -47.63369 | 37466 ft | 452 kts | 165° |
| 2026-05-03 21:16 | -16.83871 | -47.62400 | 38058 ft | 451 kts | 165° |
| 2026-05-03 21:16 | -16.86861 | -47.61432 | 38607 ft | 449 kts | 165° |
| 2026-05-03 21:16 | -16.89843 | -47.60466 | 39071 ft | 448 kts | 165° |
| 2026-05-03 21:16 | -16.92818 | -47.59502 | 39472 ft | 447 kts | 165° |
| 2026-05-03 21:17 | -16.95748 | -47.58552 | 39828 ft | 447 kts | 165° |
| 2026-05-03 21:17 | -16.98714 | -47.57591 | 40172 ft | 446 kts | 165° |
| 2026-05-03 21:17 | -17.01674 | -47.56630 | 40506 ft | 445 kts | 165° |
| 2026-05-03 21:17 | -17.04630 | -47.55672 | 40820 ft | 444 kts | 165° |
| 2026-05-03 21:18 | -17.07580 | -47.54714 | 41122 ft | 444 kts | 166° |
| 2026-05-03 21:18 | -17.10522 | -47.53759 | 41402 ft | 443 kts | 166° |
| 2026-05-03 21:18 | -17.13463 | -47.52804 | 41672 ft | 442 kts | 166° |
| 2026-05-03 21:18 | -17.16399 | -47.51849 | 41935 ft | 442 kts | 166° |
| 2026-05-03 21:19 | -17.19292 | -47.50910 | 42164 ft | 441 kts | 166° |
| 2026-05-03 21:19 | -17.22219 | -47.49959 | 42411 ft | 440 kts | 166° |
| 2026-05-03 21:19 | -17.25144 | -47.49007 | 42636 ft | 440 kts | 166° |
| 2026-05-03 21:19 | -17.28068 | -47.48056 | 42845 ft | 439 kts | 166° |
| 2026-05-03 21:20 | -17.30982 | -47.47108 | 43056 ft | 439 kts | 166° |
| 2026-05-03 21:20 | -17.33900 | -47.46158 | 43142 ft | 441 kts | 166° |
| 2026-05-03 21:20 | -17.39807 | -47.44236 | 43145 ft | 448 kts | 166° |
| 2026-05-03 21:21 | -17.45770 | -47.42290 | 43160 ft | 455 kts | 166° |
| 2026-05-03 21:21 | -17.51938 | -47.40789 | 43156 ft | 457 kts | 176° |
| 2026-05-03 21:22 | -17.58272 | -47.39792 | 43156 ft | 463 kts | 174° |
| 2026-05-03 21:22 | -17.64688 | -47.38785 | 43160 ft | 469 kts | 175° |
| 2026-05-03 21:23 | -17.71131 | -47.37772 | 43162 ft | 474 kts | 175° |
| 2026-05-03 21:23 | -17.77691 | -47.36741 | 43165 ft | 478 kts | 175° |
| 2026-05-03 21:24 | -17.84274 | -47.35704 | 43163 ft | 479 kts | 175° |
| 2026-05-03 21:24 | -17.90864 | -47.34665 | 43161 ft | 479 kts | 175° |
| 2026-05-03 21:25 | -17.97453 | -47.33626 | 43161 ft | 479 kts | 175° |
| 2026-05-03 21:25 | -18.03992 | -47.32594 | 43161 ft | 478 kts | 175° |
| 2026-05-03 21:26 | -18.10575 | -47.31556 | 43157 ft | 479 kts | 175° |
| 2026-05-03 21:26 | -18.17174 | -47.30512 | 43161 ft | 480 kts | 175° |
| 2026-05-03 21:27 | -18.23785 | -47.29467 | 43165 ft | 481 kts | 175° |
| 2026-05-03 21:27 | -18.30358 | -47.28426 | 43167 ft | 480 kts | 175° |
| 2026-05-03 21:28 | -18.36966 | -47.27380 | 43167 ft | 480 kts | 175° |
| 2026-05-03 21:28 | -18.43577 | -47.26332 | 43167 ft | 480 kts | 176° |
| 2026-05-03 21:29 | -18.50175 | -47.25285 | 43168 ft | 479 kts | 176° |
| 2026-05-03 21:29 | -18.56768 | -47.24238 | 43170 ft | 479 kts | 176° |
| 2026-05-03 21:30 | -18.63307 | -47.23200 | 43173 ft | 478 kts | 176° |
| 2026-05-03 21:30 | -18.69889 | -47.22154 | 43175 ft | 478 kts | 176° |
| 2026-05-03 21:31 | -18.76467 | -47.21106 | 43184 ft | 478 kts | 176° |
| 2026-05-03 21:31 | -18.83051 | -47.20058 | 43187 ft | 479 kts | 176° |
| 2026-05-03 21:32 | -18.89594 | -47.19013 | 43189 ft | 479 kts | 176° |
| 2026-05-03 21:32 | -18.96180 | -47.17962 | 43187 ft | 478 kts | 176° |
| 2026-05-03 21:33 | -19.02772 | -47.16910 | 43187 ft | 480 kts | 176° |
| 2026-05-03 21:33 | -19.09375 | -47.15854 | 43194 ft | 480 kts | 176° |
| 2026-05-03 21:34 | -19.15929 | -47.14805 | 43192 ft | 480 kts | 176° |
| 2026-05-03 21:34 | -19.22534 | -47.13876 | 43192 ft | 478 kts | 178° |
| 2026-05-03 21:35 | -19.29144 | -47.12941 | 43198 ft | 479 kts | 177° |
| 2026-05-03 21:35 | -19.35755 | -47.11997 | 43210 ft | 479 kts | 178° |
| 2026-05-03 21:36 | -19.42312 | -47.11069 | 43219 ft | 478 kts | 177° |
| 2026-05-03 21:36 | -19.48897 | -47.10130 | 43226 ft | 477 kts | 178° |
| 2026-05-03 21:37 | -19.55474 | -47.09196 | 43232 ft | 477 kts | 177° |
| 2026-05-03 21:37 | -19.62051 | -47.08257 | 43253 ft | 477 kts | 178° |
| 2026-05-03 21:38 | -19.68628 | -47.07320 | 43232 ft | 476 kts | 178° |
| 2026-05-03 21:38 | -19.75144 | -47.06390 | 43196 ft | 476 kts | 178° |
| 2026-05-03 21:39 | -19.81710 | -47.05452 | 43201 ft | 476 kts | 178° |
| 2026-05-03 21:39 | -19.88284 | -47.04512 | 43202 ft | 477 kts | 178° |
| 2026-05-03 21:40 | -19.94855 | -47.03574 | 43203 ft | 476 kts | 178° |
| 2026-05-03 21:40 | -20.01371 | -47.02639 | 43202 ft | 476 kts | 178° |
| 2026-05-03 21:41 | -20.07935 | -47.01700 | 43199 ft | 476 kts | 178° |
| 2026-05-03 21:41 | -20.14501 | -47.00756 | 43198 ft | 476 kts | 178° |
| 2026-05-03 21:42 | -20.21059 | -46.99817 | 43201 ft | 476 kts | 178° |
| 2026-05-03 21:42 | -20.27576 | -46.98879 | 43202 ft | 475 kts | 178° |
| 2026-05-03 21:43 | -20.34126 | -46.97938 | 43194 ft | 475 kts | 179° |
| 2026-05-03 21:43 | -20.40676 | -46.96995 | 43199 ft | 475 kts | 178° |
| 2026-05-03 21:44 | -20.47234 | -46.96050 | 43196 ft | 476 kts | 178° |
| 2026-05-03 21:44 | -20.53799 | -46.95104 | 43196 ft | 476 kts | 178° |
| 2026-05-03 21:45 | -20.60330 | -46.94161 | 43200 ft | 476 kts | 179° |
| 2026-05-03 21:45 | -20.66812 | -46.93222 | 43192 ft | 465 kts | 179° |
| 2026-05-03 21:46 | -20.73213 | -46.92302 | 43185 ft | 464 kts | 179° |
| 2026-05-03 21:46 | -20.79607 | -46.91374 | 43204 ft | 464 kts | 179° |
| 2026-05-03 21:47 | -20.85967 | -46.90364 | 43200 ft | 466 kts | 178° |
| 2026-05-03 21:47 | -20.92388 | -46.89369 | 43198 ft | 466 kts | 179° |
| 2026-05-03 21:48 | -20.98809 | -46.88364 | 43197 ft | 466 kts | 178° |
| 2026-05-03 21:48 | -21.05229 | -46.87358 | 43199 ft | 466 kts | 179° |
| 2026-05-03 21:49 | -21.11609 | -46.86362 | 43203 ft | 466 kts | 179° |
| 2026-05-03 21:49 | -21.18019 | -46.85358 | 43202 ft | 465 kts | 179° |
| 2026-05-03 21:50 | -21.24422 | -46.84353 | 43201 ft | 465 kts | 179° |
| 2026-05-03 21:50 | -21.30822 | -46.83349 | 43200 ft | 464 kts | 179° |
| 2026-05-03 21:51 | -21.37200 | -46.82348 | 43199 ft | 464 kts | 179° |
| 2026-05-03 21:51 | -21.43542 | -46.81350 | 43199 ft | 463 kts | 179° |
| 2026-05-03 21:52 | -21.49923 | -46.80347 | 43201 ft | 463 kts | 179° |
| 2026-05-03 21:52 | -21.56311 | -46.79342 | 42950 ft | 468 kts | 179° |
| 2026-05-03 21:53 | -21.59543 | -46.78835 | 42335 ft | 469 kts | 179° |
| 2026-05-03 21:53 | -21.62751 | -46.78323 | 41724 ft | 464 kts | 179° |
| 2026-05-03 21:53 | -21.65884 | -46.77825 | 41126 ft | 459 kts | 179° |
| 2026-05-03 21:53 | -21.69032 | -46.77332 | 40525 ft | 456 kts | 179° |
| 2026-05-03 21:54 | -21.72176 | -46.76841 | 39950 ft | 458 kts | 179° |
| 2026-05-03 21:54 | -21.75340 | -46.76343 | 39320 ft | 461 kts | 179° |
| 2026-05-03 21:54 | -21.78529 | -46.75837 | 38687 ft | 466 kts | 179° |
| 2026-05-03 21:54 | -21.81760 | -46.75327 | 38052 ft | 472 kts | 179° |
| 2026-05-03 21:55 | -21.85031 | -46.74810 | 37425 ft | 478 kts | 179° |
| 2026-05-03 21:55 | -21.88334 | -46.74287 | 36796 ft | 481 kts | 179° |
| 2026-05-03 21:55 | -21.91614 | -46.73766 | 36168 ft | 484 kts | 179° |
| 2026-05-03 21:55 | -21.94951 | -46.73238 | 35538 ft | 485 kts | 179° |
| 2026-05-03 21:56 | -21.98301 | -46.72706 | 34895 ft | 489 kts | 179° |
| 2026-05-03 21:56 | -22.01684 | -46.72171 | 34244 ft | 492 kts | 178° |
| 2026-05-03 21:56 | -22.05077 | -46.71630 | 33558 ft | 494 kts | 179° |
| 2026-05-03 21:56 | -22.08483 | -46.71092 | 32902 ft | 496 kts | 178° |
| 2026-05-03 21:57 | -22.11900 | -46.70550 | 32249 ft | 497 kts | 178° |
| 2026-05-03 21:57 | -22.15329 | -46.70005 | 31592 ft | 499 kts | 178° |
| 2026-05-03 21:57 | -22.18775 | -46.69456 | 30936 ft | 502 kts | 178° |
| 2026-05-03 21:57 | -22.22195 | -46.68914 | 30276 ft | 507 kts | 178° |
| 2026-05-03 21:58 | -22.25687 | -46.68359 | 29553 ft | 506 kts | 178° |
| 2026-05-03 21:58 | -22.29170 | -46.67802 | 28886 ft | 507 kts | 177° |
| 2026-05-03 21:58 | -22.32650 | -46.67252 | 28209 ft | 502 kts | 178° |
| 2026-05-03 21:58 | -22.36080 | -46.67150 | 27560 ft | 487 kts | 189° |
| 2026-05-03 21:59 | -22.39385 | -46.67639 | 26924 ft | 473 kts | 198° |
| 2026-05-03 21:59 | -22.42487 | -46.68659 | 26309 ft | 460 kts | 206° |
| 2026-05-03 21:59 | -22.45322 | -46.70141 | 25707 ft | 448 kts | 215° |
| 2026-05-03 21:59 | -22.47862 | -46.72023 | 25123 ft | 438 kts | 223° |
| 2026-05-03 22:00 | -22.50070 | -46.74181 | 24555 ft | 431 kts | 227° |
| 2026-05-03 22:00 | -22.52251 | -46.76392 | 23989 ft | 428 kts | 226° |
| 2026-05-03 22:00 | -22.54432 | -46.78572 | 23371 ft | 425 kts | 226° |
| 2026-05-03 22:00 | -22.56575 | -46.80733 | 23214 ft | 420 kts | 226° |
| 2026-05-03 22:01 | -22.58721 | -46.82917 | 23152 ft | 425 kts | 226° |
| 2026-05-03 22:01 | -22.60870 | -46.85095 | 23027 ft | 423 kts | 226° |
| 2026-05-03 22:01 | -22.63021 | -46.87263 | 22930 ft | 422 kts | 226° |
| 2026-05-03 22:01 | -22.65165 | -46.89433 | 22932 ft | 422 kts | 226° |
| 2026-05-03 22:02 | -22.67314 | -46.91538 | 22928 ft | 424 kts | 223° |
| 2026-05-03 22:02 | -22.69749 | -46.93368 | 22926 ft | 428 kts | 216° |
| 2026-05-03 22:02 | -22.72273 | -46.95069 | 22927 ft | 428 kts | 216° |
| 2026-05-03 22:02 | -22.74788 | -46.96793 | 22935 ft | 428 kts | 217° |
| 2026-05-03 22:03 | -22.77311 | -46.98520 | 22449 ft | 428 kts | 216° |
| 2026-05-03 22:03 | -22.79813 | -47.00222 | 21866 ft | 422 kts | 216° |
| 2026-05-03 22:03 | -22.82284 | -47.01901 | 21295 ft | 418 kts | 216° |
| 2026-05-03 22:03 | -22.84732 | -47.03575 | 20732 ft | 414 kts | 216° |
| 2026-05-03 22:04 | -22.87121 | -47.05212 | 20174 ft | 410 kts | 216° |
| 2026-05-03 22:04 | -22.89526 | -47.06850 | 19619 ft | 407 kts | 215° |
| 2026-05-03 22:04 | -22.91918 | -47.08465 | 19070 ft | 404 kts | 214° |
| 2026-05-03 22:04 | -22.94291 | -47.10063 | 18518 ft | 400 kts | 214° |
| 2026-05-03 22:05 | -22.96645 | -47.11647 | 17946 ft | 396 kts | 213° |
| 2026-05-03 22:05 | -22.99129 | -47.12954 | 17404 ft | 397 kts | 204° |
| 2026-05-03 22:05 | -23.01759 | -47.13850 | 16866 ft | 397 kts | 196° |
| 2026-05-03 22:05 | -23.04491 | -47.14318 | 16331 ft | 398 kts | 188° |
| 2026-05-03 22:06 | -23.07255 | -47.14345 | 15787 ft | 397 kts | 180° |
| 2026-05-03 22:06 | -23.09989 | -47.13934 | 15258 ft | 398 kts | 172° |
| 2026-05-03 22:06 | -23.12651 | -47.13324 | 14729 ft | 394 kts | 172° |
| 2026-05-03 22:06 | -23.15331 | -47.12750 | 14195 ft | 391 kts | 172° |
| 2026-05-03 22:07 | -23.17983 | -47.12179 | 13638 ft | 387 kts | 171° |
| 2026-05-03 22:07 | -23.20622 | -47.11582 | 13103 ft | 386 kts | 171° |
| 2026-05-03 22:07 | -23.23240 | -47.10999 | 12586 ft | 383 kts | 171° |
| 2026-05-03 22:07 | -23.25841 | -47.10434 | 12090 ft | 380 kts | 171° |
| 2026-05-03 22:08 | -23.28428 | -47.09867 | 11568 ft | 379 kts | 170° |
| 2026-05-03 22:08 | -23.31001 | -47.09301 | 11055 ft | 375 kts | 170° |
| 2026-05-03 22:08 | -23.33552 | -47.08745 | 10556 ft | 372 kts | 170° |
| 2026-05-03 22:08 | -23.36017 | -47.08084 | 10051 ft | 356 kts | 162° |
| 2026-05-03 22:09 | -23.38178 | -47.07023 | 9572 ft | 336 kts | 153° |
| 2026-05-03 22:09 | -23.40045 | -47.05621 | 9106 ft | 319 kts | 137° |
| 2026-05-03 22:09 | -23.41196 | -47.03636 | 8635 ft | 308 kts | 114° |
| 2026-05-03 22:10 | -23.42510 | -46.99397 | 7807 ft | 284 kts | 110° |
| 2026-05-03 22:10 | -23.43209 | -46.97421 | 7363 ft | 275 kts | 113° |
| 2026-05-03 22:10 | -23.43927 | -46.95520 | 6961 ft | 268 kts | 114° |
| 2026-05-03 22:10 | -23.44610 | -46.93653 | 6548 ft | 263 kts | 113° |
| 2026-05-03 22:11 | -23.45261 | -46.91803 | 6120 ft | 260 kts | 112° |
| 2026-05-03 22:11 | -23.45901 | -46.89996 | 5709 ft | 257 kts | 113° |
| 2026-05-03 22:11 | -23.46546 | -46.88203 | 5332 ft | 253 kts | 113° |
| 2026-05-03 22:11 | -23.47174 | -46.86452 | 5003 ft | 233 kts | 113° |
| 2026-05-03 22:12 | -23.47700 | -46.84963 | 4972 ft | 200 kts | 114° |
| 2026-05-03 22:12 | -23.48202 | -46.83571 | 4973 ft | 193 kts | 114° |
| 2026-05-03 22:12 | -23.48684 | -46.82224 | 4975 ft | 190 kts | 113° |
| 2026-05-03 22:12 | -23.49159 | -46.80898 | 4975 ft | 187 kts | 114° |
| 2026-05-03 22:13 | -23.49629 | -46.79582 | 4981 ft | 187 kts | 113° |
| 2026-05-03 22:13 | -23.50100 | -46.78261 | 4988 ft | 187 kts | 114° |
| 2026-05-03 22:13 | -23.50573 | -46.76936 | 4922 ft | 193 kts | 113° |
| 2026-05-03 22:13 | -23.50917 | -46.75549 | 4969 ft | 187 kts | 99° |
| 2026-05-03 22:14 | -23.51245 | -46.74242 | 4964 ft | 172 kts | 121° |
| 2026-05-03 22:14 | -23.51937 | -46.73187 | 4765 ft | 179 kts | 134° |
| 2026-05-03 22:14 | -23.52942 | -46.72371 | 4519 ft | 179 kts | 150° |
| 2026-05-03 22:14 | -23.53991 | -46.71693 | 4334 ft | 170 kts | 145° |
| 2026-05-03 22:15 | -23.54927 | -46.70995 | 4146 ft | 158 kts | 148° |
| 2026-05-03 22:15 | -23.55852 | -46.70385 | 4045 ft | 159 kts | 148° |
| 2026-05-03 22:15 | -23.56713 | -46.69766 | 3869 ft | 135 kts | 147° |
| 2026-05-03 22:15 | -23.57537 | -46.69220 | 3693 ft | 137 kts | 148° |
| 2026-05-03 22:16 | -23.58335 | -46.68652 | 3516 ft | 133 kts | 146° |
| 2026-05-03 22:16 | -23.59070 | -46.68134 | 3348 ft | 120 kts | 146° |
| 2026-05-03 22:16 | -23.59777 | -46.67653 | 3183 ft | 123 kts | 147° |
| 2026-05-03 22:16 | -23.60478 | -46.67161 | 3082 ft | 118 kts | 147° |
| 2026-05-03 22:17 | -23.61197 | -46.66658 | 2918 ft | 123 kts | 147° |
| 2026-05-03 22:17 | -23.61893 | -46.66183 | 2647 ft | 113 kts | 147° |
| 2026-05-03 22:17 | -23.62454 | -46.65790 | 2614 ft | 78 kts | 149° |
| 2026-05-03 22:17 | -23.62773 | -46.65570 | 2620 ft | 25 kts | 147° |
| 2026-05-03 22:18 | -23.62911 | -46.65510 | 2623 ft | 14 kts | 211° |
| 2026-05-03 22:18 | -23.62921 | -46.65604 | 2623 ft | 13 kts | 264° |
| 2026-05-03 22:18 | -23.62965 | -46.65648 | 2623 ft | 6 kts | 165° |
| 2026-05-03 22:18 | -23.62990 | -46.65631 | 2624 ft | 0 kts | 146° |